sensor_id;sensor_type;location;lat;lon;timestamp;P1;durP1;ratioP1;P2;durP2;ratioP2
26756;SDS011;23848;49.798;10.228;2023-04-21T00:00:03;22.45;;;14.93;;
26756;SDS011;23848;49.798;10.228;2023-04-21T00:02:35;21.05;;;14.60;;
26756;SDS011;23848;49.798;10.228;2023-04-21T00:05:07;22.35;;;15.82;;
26756;SDS011;23848;49.798;10.228;2023-04-21T00:07:39;21.02;;;15.55;;
26756;SDS011;23848;49.798;10.228;2023-04-21T00:10:08;21.73;;;15.32;;
26756;SDS011;23848;49.798;10.228;2023-04-21T00:12:37;23.60;;;16.30;;
26756;SDS011;23848;49.798;10.228;2023-04-21T00:15:06;23.10;;;15.70;;
26756;SDS011;23848;49.798;10.228;2023-04-21T00:17:35;24.23;;;16.42;;
26756;SDS011;23848;49.798;10.228;2023-04-21T00:20:05;23.40;;;15.57;;
26756;SDS011;23848;49.798;10.228;2023-04-21T00:22:33;23.15;;;15.98;;
26756;SDS011;23848;49.798;10.228;2023-04-21T00:25:04;23.75;;;15.75;;
26756;SDS011;23848;49.798;10.228;2023-04-21T00:27:32;23.63;;;16.80;;
26756;SDS011;23848;49.798;10.228;2023-04-21T00:30:01;25.15;;;16.67;;
26756;SDS011;23848;49.798;10.228;2023-04-21T00:32:30;23.30;;;15.88;;
26756;SDS011;23848;49.798;10.228;2023-04-21T00:34:59;23.33;;;16.13;;
26756;SDS011;23848;49.798;10.228;2023-04-21T00:37:28;26.45;;;17.05;;
26756;SDS011;23848;49.798;10.228;2023-04-21T00:39:57;21.98;;;15.82;;
26756;SDS011;23848;49.798;10.228;2023-04-21T00:42:27;23.80;;;16.00;;
26756;SDS011;23848;49.798;10.228;2023-04-21T00:44:56;23.10;;;16.08;;
26756;SDS011;23848;49.798;10.228;2023-04-21T00:47:24;24.05;;;15.98;;
26756;SDS011;23848;49.798;10.228;2023-04-21T00:49:53;24.33;;;16.42;;
26756;SDS011;23848;49.798;10.228;2023-04-21T00:52:21;22.90;;;15.85;;
26756;SDS011;23848;49.798;10.228;2023-04-21T00:54:50;23.70;;;16.45;;
26756;SDS011;23848;49.798;10.228;2023-04-21T00:57:19;23.08;;;15.93;;
26756;SDS011;23848;49.798;10.228;2023-04-21T00:59:50;24.02;;;16.35;;
26756;SDS011;23848;49.798;10.228;2023-04-21T01:02:18;22.25;;;16.13;;
26756;SDS011;23848;49.798;10.228;2023-04-21T01:04:48;21.65;;;15.18;;
26756;SDS011;23848;49.798;10.228;2023-04-21T01:07:17;25.25;;;17.02;;
26756;SDS011;23848;49.798;10.228;2023-04-21T01:09:45;24.90;;;17.17;;
26756;SDS011;23848;49.798;10.228;2023-04-21T01:12:14;24.75;;;17.40;;
26756;SDS011;23848;49.798;10.228;2023-04-21T01:14:43;25.08;;;16.98;;
26756;SDS011;23848;49.798;10.228;2023-04-21T01:17:13;23.90;;;16.80;;
26756;SDS011;23848;49.798;10.228;2023-04-21T01:19:44;26.80;;;17.58;;
26756;SDS011;23848;49.798;10.228;2023-04-21T01:22:14;27.65;;;17.92;;
26756;SDS011;23848;49.798;10.228;2023-04-21T01:24:44;23.73;;;17.08;;
26756;SDS011;23848;49.798;10.228;2023-04-21T01:27:14;26.95;;;17.30;;
26756;SDS011;23848;49.798;10.228;2023-04-21T01:29:44;26.63;;;17.02;;
26756;SDS011;23848;49.798;10.228;2023-04-21T01:32:14;27.83;;;18.63;;
26756;SDS011;23848;49.798;10.228;2023-04-21T01:34:43;27.80;;;18.02;;
26756;SDS011;23848;49.798;10.228;2023-04-21T01:37:14;28.55;;;17.90;;
26756;SDS011;23848;49.798;10.228;2023-04-21T01:39:44;26.25;;;17.90;;
26756;SDS011;23848;49.798;10.228;2023-04-21T01:42:13;26.17;;;16.92;;
26756;SDS011;23848;49.798;10.228;2023-04-21T01:44:41;23.48;;;16.02;;
26756;SDS011;23848;49.798;10.228;2023-04-21T01:47:12;22.85;;;15.05;;
26756;SDS011;23848;49.798;10.228;2023-04-21T01:49:41;25.60;;;15.85;;
26756;SDS011;23848;49.798;10.228;2023-04-21T01:52:10;22.05;;;15.43;;
26756;SDS011;23848;49.798;10.228;2023-04-21T01:54:40;24.27;;;16.35;;
26756;SDS011;23848;49.798;10.228;2023-04-21T01:57:09;24.85;;;16.55;;
26756;SDS011;23848;49.798;10.228;2023-04-21T01:59:38;25.33;;;16.15;;
26756;SDS011;23848;49.798;10.228;2023-04-21T02:02:06;23.08;;;15.30;;
26756;SDS011;23848;49.798;10.228;2023-04-21T02:04:35;24.10;;;16.48;;
26756;SDS011;23848;49.798;10.228;2023-04-21T02:07:05;24.42;;;17.08;;
26756;SDS011;23848;49.798;10.228;2023-04-21T02:09:33;23.85;;;16.00;;
26756;SDS011;23848;49.798;10.228;2023-04-21T02:12:04;24.58;;;15.95;;
26756;SDS011;23848;49.798;10.228;2023-04-21T02:14:33;24.10;;;16.02;;
26756;SDS011;23848;49.798;10.228;2023-04-21T02:17:01;25.00;;;16.65;;
26756;SDS011;23848;49.798;10.228;2023-04-21T02:19:30;25.15;;;15.93;;
26756;SDS011;23848;49.798;10.228;2023-04-21T02:21:58;22.38;;;15.73;;
26756;SDS011;23848;49.798;10.228;2023-04-21T02:24:27;25.05;;;16.98;;
26756;SDS011;23848;49.798;10.228;2023-04-21T02:26:56;23.13;;;15.57;;
26756;SDS011;23848;49.798;10.228;2023-04-21T02:29:26;24.23;;;16.58;;
26756;SDS011;23848;49.798;10.228;2023-04-21T02:31:55;23.13;;;15.68;;
26756;SDS011;23848;49.798;10.228;2023-04-21T02:34:39;21.63;;;15.43;;
26756;SDS011;23848;49.798;10.228;2023-04-21T02:37:08;22.85;;;15.60;;
26756;SDS011;23848;49.798;10.228;2023-04-21T02:39:36;23.30;;;15.65;;
26756;SDS011;23848;49.798;10.228;2023-04-21T02:42:05;23.17;;;15.07;;
26756;SDS011;23848;49.798;10.228;2023-04-21T02:44:37;21.50;;;14.57;;
26756;SDS011;23848;49.798;10.228;2023-04-21T02:47:05;24.50;;;15.68;;
26756;SDS011;23848;49.798;10.228;2023-04-21T02:49:38;23.92;;;15.57;;
26756;SDS011;23848;49.798;10.228;2023-04-21T02:52:07;26.25;;;15.80;;
26756;SDS011;23848;49.798;10.228;2023-04-21T02:54:35;26.27;;;16.38;;
26756;SDS011;23848;49.798;10.228;2023-04-21T02:57:04;22.35;;;15.77;;
26756;SDS011;23848;49.798;10.228;2023-04-21T02:59:33;22.02;;;15.63;;
26756;SDS011;23848;49.798;10.228;2023-04-21T03:02:04;21.40;;;15.20;;
26756;SDS011;23848;49.798;10.228;2023-04-21T03:04:32;22.05;;;15.35;;
26756;SDS011;23848;49.798;10.228;2023-04-21T03:07:01;23.13;;;15.65;;
26756;SDS011;23848;49.798;10.228;2023-04-21T03:09:30;23.23;;;16.25;;
26756;SDS011;23848;49.798;10.228;2023-04-21T03:11:58;23.50;;;15.48;;
26756;SDS011;23848;49.798;10.228;2023-04-21T03:14:28;23.15;;;15.35;;
26756;SDS011;23848;49.798;10.228;2023-04-21T03:16:57;25.88;;;16.70;;
26756;SDS011;23848;49.798;10.228;2023-04-21T03:19:27;24.77;;;15.30;;
26756;SDS011;23848;49.798;10.228;2023-04-21T03:21:56;23.70;;;15.70;;
26756;SDS011;23848;49.798;10.228;2023-04-21T03:24:25;24.00;;;16.30;;
26756;SDS011;23848;49.798;10.228;2023-04-21T03:26:54;23.45;;;16.25;;
26756;SDS011;23848;49.798;10.228;2023-04-21T03:29:23;25.40;;;16.52;;
26756;SDS011;23848;49.798;10.228;2023-04-21T03:31:52;23.58;;;15.30;;
26756;SDS011;23848;49.798;10.228;2023-04-21T03:34:20;24.30;;;16.52;;
26756;SDS011;23848;49.798;10.228;2023-04-21T03:36:50;23.23;;;15.45;;
26756;SDS011;23848;49.798;10.228;2023-04-21T03:39:19;25.77;;;17.23;;
26756;SDS011;23848;49.798;10.228;2023-04-21T03:41:48;27.33;;;16.45;;
26756;SDS011;23848;49.798;10.228;2023-04-21T03:44:17;28.05;;;17.02;;
26756;SDS011;23848;49.798;10.228;2023-04-21T03:46:46;25.13;;;17.25;;
26756;SDS011;23848;49.798;10.228;2023-04-21T03:49:14;25.80;;;17.25;;
26756;SDS011;23848;49.798;10.228;2023-04-21T03:51:43;28.48;;;18.08;;
26756;SDS011;23848;49.798;10.228;2023-04-21T03:54:13;27.08;;;17.75;;
26756;SDS011;23848;49.798;10.228;2023-04-21T03:56:42;26.48;;;17.90;;
26756;SDS011;23848;49.798;10.228;2023-04-21T03:59:10;25.75;;;17.60;;
26756;SDS011;23848;49.798;10.228;2023-04-21T04:01:39;28.58;;;17.58;;
26756;SDS011;23848;49.798;10.228;2023-04-21T04:04:08;23.45;;;16.05;;
26756;SDS011;23848;49.798;10.228;2023-04-21T04:06:38;26.17;;;17.40;;
26756;SDS011;23848;49.798;10.228;2023-04-21T04:09:07;27.65;;;16.92;;
26756;SDS011;23848;49.798;10.228;2023-04-21T04:11:37;27.73;;;17.35;;
26756;SDS011;23848;49.798;10.228;2023-04-21T04:14:06;25.08;;;16.55;;
26756;SDS011;23848;49.798;10.228;2023-04-21T04:16:34;26.83;;;17.27;;
26756;SDS011;23848;49.798;10.228;2023-04-21T04:19:03;23.90;;;16.10;;
26756;SDS011;23848;49.798;10.228;2023-04-21T04:21:32;27.05;;;17.90;;
26756;SDS011;23848;49.798;10.228;2023-04-21T04:24:01;27.63;;;18.00;;
26756;SDS011;23848;49.798;10.228;2023-04-21T04:26:30;28.88;;;19.60;;
26756;SDS011;23848;49.798;10.228;2023-04-21T04:29:02;25.77;;;18.67;;
26756;SDS011;23848;49.798;10.228;2023-04-21T04:31:31;25.67;;;17.17;;
26756;SDS011;23848;49.798;10.228;2023-04-21T04:34:00;28.83;;;18.40;;
26756;SDS011;23848;49.798;10.228;2023-04-21T04:36:29;25.40;;;17.67;;
26756;SDS011;23848;49.798;10.228;2023-04-21T04:38:58;27.85;;;18.55;;
26756;SDS011;23848;49.798;10.228;2023-04-21T04:41:28;27.75;;;18.63;;
26756;SDS011;23848;49.798;10.228;2023-04-21T04:43:59;24.75;;;16.88;;
26756;SDS011;23848;49.798;10.228;2023-04-21T04:46:31;24.88;;;17.33;;
26756;SDS011;23848;49.798;10.228;2023-04-21T04:49:00;25.45;;;17.23;;
26756;SDS011;23848;49.798;10.228;2023-04-21T04:51:35;26.67;;;18.02;;
26756;SDS011;23848;49.798;10.228;2023-04-21T04:54:04;29.15;;;18.95;;
26756;SDS011;23848;49.798;10.228;2023-04-21T04:56:32;27.67;;;18.13;;
26756;SDS011;23848;49.798;10.228;2023-04-21T04:59:01;29.85;;;19.40;;
26756;SDS011;23848;49.798;10.228;2023-04-21T05:01:32;33.42;;;21.05;;
26756;SDS011;23848;49.798;10.228;2023-04-21T05:04:03;32.20;;;21.38;;
26756;SDS011;23848;49.798;10.228;2023-04-21T05:06:32;32.50;;;21.67;;
26756;SDS011;23848;49.798;10.228;2023-04-21T05:09:01;35.50;;;22.45;;
26756;SDS011;23848;49.798;10.228;2023-04-21T05:11:31;38.53;;;24.65;;
26756;SDS011;23848;49.798;10.228;2023-04-21T05:14:00;30.63;;;19.08;;
26756;SDS011;23848;49.798;10.228;2023-04-21T05:16:29;27.35;;;17.95;;
26756;SDS011;23848;49.798;10.228;2023-04-21T05:19:01;30.85;;;18.75;;
26756;SDS011;23848;49.798;10.228;2023-04-21T05:21:30;26.05;;;17.88;;
26756;SDS011;23848;49.798;10.228;2023-04-21T05:23:59;29.75;;;19.23;;
26756;SDS011;23848;49.798;10.228;2023-04-21T05:26:27;28.98;;;19.65;;
26756;SDS011;23848;49.798;10.228;2023-04-21T05:28:57;28.83;;;19.25;;
26756;SDS011;23848;49.798;10.228;2023-04-21T05:31:26;29.83;;;19.38;;
26756;SDS011;23848;49.798;10.228;2023-04-21T05:33:54;29.10;;;19.23;;
26756;SDS011;23848;49.798;10.228;2023-04-21T05:36:28;29.27;;;19.42;;
26756;SDS011;23848;49.798;10.228;2023-04-21T05:38:57;27.13;;;18.30;;
26756;SDS011;23848;49.798;10.228;2023-04-21T05:41:25;28.83;;;19.33;;
26756;SDS011;23848;49.798;10.228;2023-04-21T05:43:54;29.38;;;18.77;;
26756;SDS011;23848;49.798;10.228;2023-04-21T05:46:23;25.85;;;18.25;;
26756;SDS011;23848;49.798;10.228;2023-04-21T05:48:51;26.73;;;18.58;;
26756;SDS011;23848;49.798;10.228;2023-04-21T05:51:20;28.30;;;19.23;;
26756;SDS011;23848;49.798;10.228;2023-04-21T05:53:50;30.63;;;19.13;;
26756;SDS011;23848;49.798;10.228;2023-04-21T05:56:19;26.70;;;17.58;;
26756;SDS011;23848;49.798;10.228;2023-04-21T05:58:48;25.27;;;17.42;;
26756;SDS011;23848;49.798;10.228;2023-04-21T06:01:17;29.27;;;17.83;;
26756;SDS011;23848;49.798;10.228;2023-04-21T06:03:46;31.33;;;18.13;;
26756;SDS011;23848;49.798;10.228;2023-04-21T06:06:16;27.95;;;18.13;;
26756;SDS011;23848;49.798;10.228;2023-04-21T06:08:44;25.95;;;17.27;;
26756;SDS011;23848;49.798;10.228;2023-04-21T06:11:14;27.92;;;18.25;;
26756;SDS011;23848;49.798;10.228;2023-04-21T06:13:43;24.08;;;16.52;;
26756;SDS011;23848;49.798;10.228;2023-04-21T06:16:12;26.30;;;16.60;;
26756;SDS011;23848;49.798;10.228;2023-04-21T06:18:40;23.42;;;16.27;;
26756;SDS011;23848;49.798;10.228;2023-04-21T06:21:10;25.13;;;16.75;;
26756;SDS011;23848;49.798;10.228;2023-04-21T06:23:50;23.73;;;16.15;;
26756;SDS011;23848;49.798;10.228;2023-04-21T06:26:20;24.15;;;16.58;;
26756;SDS011;23848;49.798;10.228;2023-04-21T06:28:49;24.65;;;16.45;;
26756;SDS011;23848;49.798;10.228;2023-04-21T06:31:17;25.27;;;15.90;;
26756;SDS011;23848;49.798;10.228;2023-04-21T06:33:45;25.08;;;16.13;;
26756;SDS011;23848;49.798;10.228;2023-04-21T06:36:14;26.88;;;16.63;;
26756;SDS011;23848;49.798;10.228;2023-04-21T06:38:43;25.77;;;16.55;;
26756;SDS011;23848;49.798;10.228;2023-04-21T06:41:12;27.80;;;16.58;;
26756;SDS011;23848;49.798;10.228;2023-04-21T06:43:41;26.25;;;16.65;;
26756;SDS011;23848;49.798;10.228;2023-04-21T06:46:10;25.02;;;16.08;;
26756;SDS011;23848;49.798;10.228;2023-04-21T06:48:38;26.23;;;17.67;;
26756;SDS011;23848;49.798;10.228;2023-04-21T06:51:06;26.60;;;17.35;;
26756;SDS011;23848;49.798;10.228;2023-04-21T06:53:35;27.17;;;17.65;;
26756;SDS011;23848;49.798;10.228;2023-04-21T06:56:04;24.70;;;16.67;;
26756;SDS011;23848;49.798;10.228;2023-04-21T06:58:35;29.83;;;17.23;;
26756;SDS011;23848;49.798;10.228;2023-04-21T07:01:04;25.88;;;16.70;;
26756;SDS011;23848;49.798;10.228;2023-04-21T07:03:33;27.00;;;16.67;;
26756;SDS011;23848;49.798;10.228;2023-04-21T07:06:02;24.83;;;15.50;;
26756;SDS011;23848;49.798;10.228;2023-04-21T07:08:30;25.60;;;16.50;;
26756;SDS011;23848;49.798;10.228;2023-04-21T07:10:59;24.50;;;16.63;;
26756;SDS011;23848;49.798;10.228;2023-04-21T07:13:27;24.85;;;15.98;;
26756;SDS011;23848;49.798;10.228;2023-04-21T07:15:55;23.55;;;14.88;;
26756;SDS011;23848;49.798;10.228;2023-04-21T07:18:25;22.42;;;15.38;;
26756;SDS011;23848;49.798;10.228;2023-04-21T07:20:54;22.80;;;15.32;;
26756;SDS011;23848;49.798;10.228;2023-04-21T07:23:22;23.63;;;15.90;;
26756;SDS011;23848;49.798;10.228;2023-04-21T07:25:51;24.10;;;15.70;;
26756;SDS011;23848;49.798;10.228;2023-04-21T07:28:19;24.17;;;15.68;;
26756;SDS011;23848;49.798;10.228;2023-04-21T07:30:48;20.77;;;14.85;;
26756;SDS011;23848;49.798;10.228;2023-04-21T07:33:19;21.67;;;14.50;;
26756;SDS011;23848;49.798;10.228;2023-04-21T07:35:53;21.10;;;14.82;;
26756;SDS011;23848;49.798;10.228;2023-04-21T07:38:22;23.42;;;15.02;;
26756;SDS011;23848;49.798;10.228;2023-04-21T07:40:51;19.63;;;14.45;;
26756;SDS011;23848;49.798;10.228;2023-04-21T07:43:20;21.80;;;14.50;;
26756;SDS011;23848;49.798;10.228;2023-04-21T07:45:48;20.95;;;14.23;;
26756;SDS011;23848;49.798;10.228;2023-04-21T07:48:20;21.77;;;15.10;;
26756;SDS011;23848;49.798;10.228;2023-04-21T07:51:11;22.23;;;14.43;;
26756;SDS011;23848;49.798;10.228;2023-04-21T07:53:46;19.73;;;13.30;;
26756;SDS011;23848;49.798;10.228;2023-04-21T07:56:16;20.13;;;13.10;;
26756;SDS011;23848;49.798;10.228;2023-04-21T07:58:44;21.00;;;13.88;;
26756;SDS011;23848;49.798;10.228;2023-04-21T08:01:12;21.85;;;14.00;;
26756;SDS011;23848;49.798;10.228;2023-04-21T08:03:46;20.38;;;13.35;;
26756;SDS011;23848;49.798;10.228;2023-04-21T08:06:20;17.58;;;12.30;;
26756;SDS011;23848;49.798;10.228;2023-04-21T08:08:49;19.35;;;12.95;;
26756;SDS011;23848;49.798;10.228;2023-04-21T08:11:17;19.95;;;13.75;;
26756;SDS011;23848;49.798;10.228;2023-04-21T08:13:46;18.25;;;13.65;;
26756;SDS011;23848;49.798;10.228;2023-04-21T08:16:17;20.15;;;13.82;;
26756;SDS011;23848;49.798;10.228;2023-04-21T08:18:45;20.00;;;13.57;;
26756;SDS011;23848;49.798;10.228;2023-04-21T08:21:14;19.20;;;12.38;;
26756;SDS011;23848;49.798;10.228;2023-04-21T08:23:44;17.98;;;12.50;;
26756;SDS011;23848;49.798;10.228;2023-04-21T08:26:12;16.98;;;12.18;;
26756;SDS011;23848;49.798;10.228;2023-04-21T08:28:42;19.58;;;12.27;;
26756;SDS011;23848;49.798;10.228;2023-04-21T08:31:11;16.17;;;11.10;;
26756;SDS011;23848;49.798;10.228;2023-04-21T08:33:44;19.45;;;12.02;;
26756;SDS011;23848;49.798;10.228;2023-04-21T08:36:30;18.95;;;11.18;;
26756;SDS011;23848;49.798;10.228;2023-04-21T08:39:05;16.27;;;11.55;;
26756;SDS011;23848;49.798;10.228;2023-04-21T08:41:40;17.55;;;11.68;;
26756;SDS011;23848;49.798;10.228;2023-04-21T08:44:25;16.38;;;11.70;;
26756;SDS011;23848;49.798;10.228;2023-04-21T08:47:01;14.27;;;9.73;;
26756;SDS011;23848;49.798;10.228;2023-04-21T08:49:40;12.10;;;7.93;;
26756;SDS011;23848;49.798;10.228;2023-04-21T08:52:26;11.80;;;8.05;;
26756;SDS011;23848;49.798;10.228;2023-04-21T08:55:01;14.25;;;7.38;;
26756;SDS011;23848;49.798;10.228;2023-04-21T08:57:32;10.25;;;7.22;;
26756;SDS011;23848;49.798;10.228;2023-04-21T09:00:20;11.15;;;8.30;;
26756;SDS011;23848;49.798;10.228;2023-04-21T09:03:11;12.73;;;8.20;;
26756;SDS011;23848;49.798;10.228;2023-04-21T09:05:57;14.77;;;7.95;;
26756;SDS011;23848;49.798;10.228;2023-04-21T09:08:35;11.10;;;7.38;;
26756;SDS011;23848;49.798;10.228;2023-04-21T09:11:11;10.95;;;7.63;;
26756;SDS011;23848;49.798;10.228;2023-04-21T09:13:46;11.25;;;7.68;;
26756;SDS011;23848;49.798;10.228;2023-04-21T09:16:17;10.25;;;7.57;;
26756;SDS011;23848;49.798;10.228;2023-04-21T09:19:01;10.20;;;7.55;;
26756;SDS011;23848;49.798;10.228;2023-04-21T09:21:46;10.98;;;7.80;;
26756;SDS011;23848;49.798;10.228;2023-04-21T09:24:17;13.60;;;7.75;;
26756;SDS011;23848;49.798;10.228;2023-04-21T09:26:53;12.70;;;8.13;;
26756;SDS011;23848;49.798;10.228;2023-04-21T09:29:27;11.40;;;8.27;;
26756;SDS011;23848;49.798;10.228;2023-04-21T09:32:02;10.98;;;7.60;;
26756;SDS011;23848;49.798;10.228;2023-04-21T09:37:44;11.65;;;8.52;;
26756;SDS011;23848;49.798;10.228;2023-04-21T09:40:13;12.63;;;8.38;;
26756;SDS011;23848;49.798;10.228;2023-04-21T09:42:52;12.00;;;7.65;;
26756;SDS011;23848;49.798;10.228;2023-04-21T09:45:26;11.68;;;8.35;;
26756;SDS011;23848;49.798;10.228;2023-04-21T09:48:07;12.98;;;8.30;;
26756;SDS011;23848;49.798;10.228;2023-04-21T09:50:51;11.27;;;7.43;;
26756;SDS011;23848;49.798;10.228;2023-04-21T09:53:38;9.80;;;7.15;;
26756;SDS011;23848;49.798;10.228;2023-04-21T09:56:14;9.40;;;6.70;;
26756;SDS011;23848;49.798;10.228;2023-04-21T09:59:00;13.57;;;7.68;;
26756;SDS011;23848;49.798;10.228;2023-04-21T10:01:49;10.18;;;7.45;;
26756;SDS011;23848;49.798;10.228;2023-04-21T10:04:28;9.60;;;7.53;;
26756;SDS011;23848;49.798;10.228;2023-04-21T10:07:04;11.10;;;8.15;;
26756;SDS011;23848;49.798;10.228;2023-04-21T10:09:39;10.15;;;8.27;;
26756;SDS011;23848;49.798;10.228;2023-04-21T10:12:18;10.32;;;7.60;;
26756;SDS011;23848;49.798;10.228;2023-04-21T10:14:56;10.80;;;7.45;;
26756;SDS011;23848;49.798;10.228;2023-04-21T10:17:28;10.02;;;6.80;;
26756;SDS011;23848;49.798;10.228;2023-04-21T10:20:07;10.15;;;7.35;;
26756;SDS011;23848;49.798;10.228;2023-04-21T10:22:45;11.68;;;8.23;;
26756;SDS011;23848;49.798;10.228;2023-04-21T10:25:33;10.45;;;7.63;;
26756;SDS011;23848;49.798;10.228;2023-04-21T10:28:40;9.68;;;7.20;;
26756;SDS011;23848;49.798;10.228;2023-04-21T10:31:48;9.05;;;6.63;;
26756;SDS011;23848;49.798;10.228;2023-04-21T10:34:37;11.63;;;6.65;;
26756;SDS011;23848;49.798;10.228;2023-04-21T10:37:16;9.52;;;7.00;;
26756;SDS011;23848;49.798;10.228;2023-04-21T10:39:54;10.55;;;7.45;;
26756;SDS011;23848;49.798;10.228;2023-04-21T10:43:00;9.60;;;6.80;;
26756;SDS011;23848;49.798;10.228;2023-04-21T10:46:01;12.55;;;7.03;;
26756;SDS011;23848;49.798;10.228;2023-04-21T10:49:09;9.32;;;6.55;;
26756;SDS011;23848;49.798;10.228;2023-04-21T10:52:07;9.65;;;6.90;;
26756;SDS011;23848;49.798;10.228;2023-04-21T10:55:05;9.02;;;6.70;;
26756;SDS011;23848;49.798;10.228;2023-04-21T10:58:00;9.27;;;6.35;;
26756;SDS011;23848;49.798;10.228;2023-04-21T11:00:43;9.05;;;6.25;;
26756;SDS011;23848;49.798;10.228;2023-04-21T11:06:40;10.82;;;6.60;;
26756;SDS011;23848;49.798;10.228;2023-04-21T11:09:43;7.70;;;5.93;;
26756;SDS011;23848;49.798;10.228;2023-04-21T11:12:48;9.82;;;5.10;;
26756;SDS011;23848;49.798;10.228;2023-04-21T11:19:03;6.32;;;5.00;;
26756;SDS011;23848;49.798;10.228;2023-04-21T11:21:35;9.02;;;5.55;;
26756;SDS011;23848;49.798;10.228;2023-04-21T11:24:13;8.07;;;4.80;;
26756;SDS011;23848;49.798;10.228;2023-04-21T11:26:48;7.57;;;5.18;;
26756;SDS011;23848;49.798;10.228;2023-04-21T11:29:19;7.93;;;5.50;;
26756;SDS011;23848;49.798;10.228;2023-04-21T11:32:00;8.40;;;5.43;;
26756;SDS011;23848;49.798;10.228;2023-04-21T11:34:39;7.28;;;5.00;;
26756;SDS011;23848;49.798;10.228;2023-04-21T11:37:21;6.43;;;4.90;;
26756;SDS011;23848;49.798;10.228;2023-04-21T11:40:00;7.60;;;5.35;;
26756;SDS011;23848;49.798;10.228;2023-04-21T11:42:34;7.95;;;5.75;;
26756;SDS011;23848;49.798;10.228;2023-04-21T11:45:15;7.15;;;5.18;;
26756;SDS011;23848;49.798;10.228;2023-04-21T11:47:49;6.88;;;4.70;;
26756;SDS011;23848;49.798;10.228;2023-04-21T11:50:30;7.95;;;4.85;;
26756;SDS011;23848;49.798;10.228;2023-04-21T11:53:19;6.68;;;4.90;;
26756;SDS011;23848;49.798;10.228;2023-04-21T11:55:50;9.48;;;4.75;;
26756;SDS011;23848;49.798;10.228;2023-04-21T11:58:29;8.30;;;5.10;;
26756;SDS011;23848;49.798;10.228;2023-04-21T12:01:06;8.13;;;5.40;;
26756;SDS011;23848;49.798;10.228;2023-04-21T12:03:37;7.38;;;4.70;;
26756;SDS011;23848;49.798;10.228;2023-04-21T12:06:10;10.35;;;5.38;;
26756;SDS011;23848;49.798;10.228;2023-04-21T12:08:55;6.63;;;5.07;;
26756;SDS011;23848;49.798;10.228;2023-04-21T12:11:28;5.20;;;4.10;;
26756;SDS011;23848;49.798;10.228;2023-04-21T12:14:07;6.32;;;4.40;;
26756;SDS011;23848;49.798;10.228;2023-04-21T12:16:38;5.95;;;4.18;;
26756;SDS011;23848;49.798;10.228;2023-04-21T12:19:12;7.10;;;4.35;;
26756;SDS011;23848;49.798;10.228;2023-04-21T12:22:05;6.47;;;3.95;;
26756;SDS011;23848;49.798;10.228;2023-04-21T12:24:37;5.15;;;3.78;;
26756;SDS011;23848;49.798;10.228;2023-04-21T12:27:07;7.53;;;3.88;;
26756;SDS011;23848;49.798;10.228;2023-04-21T12:29:40;5.18;;;3.50;;
26756;SDS011;23848;49.798;10.228;2023-04-21T12:32:11;5.75;;;4.10;;
26756;SDS011;23848;49.798;10.228;2023-04-21T12:34:58;5.70;;;3.77;;
26756;SDS011;23848;49.798;10.228;2023-04-21T12:41:05;6.55;;;4.20;;
26756;SDS011;23848;49.798;10.228;2023-04-21T12:43:48;5.57;;;3.83;;
26756;SDS011;23848;49.798;10.228;2023-04-21T12:46:23;7.40;;;4.53;;
26756;SDS011;23848;49.798;10.228;2023-04-21T12:49:45;6.85;;;4.05;;
26756;SDS011;23848;49.798;10.228;2023-04-21T12:56:02;7.03;;;4.40;;
26756;SDS011;23848;49.798;10.228;2023-04-21T12:59:47;6.13;;;4.18;;
26756;SDS011;23848;49.798;10.228;2023-04-21T13:06:47;5.75;;;3.58;;
26756;SDS011;23848;49.798;10.228;2023-04-21T13:10:12;5.28;;;3.60;;
26756;SDS011;23848;49.798;10.228;2023-04-21T13:13:38;6.65;;;3.83;;
26756;SDS011;23848;49.798;10.228;2023-04-21T13:16:23;5.07;;;3.20;;
26756;SDS011;23848;49.798;10.228;2023-04-21T13:19:59;6.20;;;3.95;;
26756;SDS011;23848;49.798;10.228;2023-04-21T13:22:47;4.95;;;3.53;;
26756;SDS011;23848;49.798;10.228;2023-04-21T13:25:44;4.90;;;3.25;;
26756;SDS011;23848;49.798;10.228;2023-04-21T13:28:23;4.35;;;3.03;;
26756;SDS011;23848;49.798;10.228;2023-04-21T13:30:59;4.20;;;2.90;;
26756;SDS011;23848;49.798;10.228;2023-04-21T13:34:27;6.07;;;3.40;;
26756;SDS011;23848;49.798;10.228;2023-04-21T13:37:14;4.38;;;3.05;;
26756;SDS011;23848;49.798;10.228;2023-04-21T13:40:12;6.30;;;3.80;;
26756;SDS011;23848;49.798;10.228;2023-04-21T13:42:47;5.53;;;3.47;;
26756;SDS011;23848;49.798;10.228;2023-04-21T13:45:24;6.38;;;3.40;;
26756;SDS011;23848;49.798;10.228;2023-04-21T13:54:23;3.78;;;2.47;;
26756;SDS011;23848;49.798;10.228;2023-04-21T13:57:11;6.20;;;3.03;;
26756;SDS011;23848;49.798;10.228;2023-04-21T14:00:16;4.30;;;2.85;;
26756;SDS011;23848;49.798;10.228;2023-04-21T14:03:07;6.07;;;3.15;;
26756;SDS011;23848;49.798;10.228;2023-04-21T14:05:50;4.35;;;3.15;;
26756;SDS011;23848;49.798;10.228;2023-04-21T14:08:27;4.15;;;3.08;;
26756;SDS011;23848;49.798;10.228;2023-04-21T14:11:03;10.85;;;3.72;;
26756;SDS011;23848;49.798;10.228;2023-04-21T14:13:43;4.57;;;2.85;;
26756;SDS011;23848;49.798;10.228;2023-04-21T14:16:29;4.13;;;3.10;;
26756;SDS011;23848;49.798;10.228;2023-04-21T14:19:04;5.03;;;3.22;;
26756;SDS011;23848;49.798;10.228;2023-04-21T14:21:37;5.25;;;3.15;;
26756;SDS011;23848;49.798;10.228;2023-04-21T14:24:16;3.97;;;2.70;;
26756;SDS011;23848;49.798;10.228;2023-04-21T14:26:48;5.68;;;3.20;;
26756;SDS011;23848;49.798;10.228;2023-04-21T14:29:19;5.22;;;3.03;;
26756;SDS011;23848;49.798;10.228;2023-04-21T14:31:56;4.38;;;3.00;;
26756;SDS011;23848;49.798;10.228;2023-04-21T14:34:29;4.80;;;3.10;;
26756;SDS011;23848;49.798;10.228;2023-04-21T14:37:14;4.80;;;2.90;;
26756;SDS011;23848;49.798;10.228;2023-04-21T14:39:56;4.95;;;3.40;;
26756;SDS011;23848;49.798;10.228;2023-04-21T14:42:43;6.05;;;3.65;;
26756;SDS011;23848;49.798;10.228;2023-04-21T14:45:24;5.30;;;3.60;;
26756;SDS011;23848;49.798;10.228;2023-04-21T14:48:09;4.25;;;2.78;;
26756;SDS011;23848;49.798;10.228;2023-04-21T14:53:14;4.43;;;2.67;;
26756;SDS011;23848;49.798;10.228;2023-04-21T14:55:49;3.88;;;2.75;;
26756;SDS011;23848;49.798;10.228;2023-04-21T14:58:23;4.35;;;2.90;;
26756;SDS011;23848;49.798;10.228;2023-04-21T15:00:54;4.53;;;2.92;;
26756;SDS011;23848;49.798;10.228;2023-04-21T15:03:39;3.92;;;2.55;;
26756;SDS011;23848;49.798;10.228;2023-04-21T15:06:29;3.88;;;2.60;;
26756;SDS011;23848;49.798;10.228;2023-04-21T15:08:59;4.85;;;2.72;;
26756;SDS011;23848;49.798;10.228;2023-04-21T15:11:38;4.88;;;2.78;;
26756;SDS011;23848;49.798;10.228;2023-04-21T15:14:17;4.07;;;2.78;;
26756;SDS011;23848;49.798;10.228;2023-04-21T15:17:03;4.85;;;2.53;;
26756;SDS011;23848;49.798;10.228;2023-04-21T15:19:33;5.22;;;2.20;;
26756;SDS011;23848;49.798;10.228;2023-04-21T15:22:07;3.97;;;2.28;;
26756;SDS011;23848;49.798;10.228;2023-04-21T15:25:07;3.40;;;2.75;;
26756;SDS011;23848;49.798;10.228;2023-04-21T15:27:44;3.83;;;2.53;;
26756;SDS011;23848;49.798;10.228;2023-04-21T15:30:27;2.85;;;1.95;;
26756;SDS011;23848;49.798;10.228;2023-04-21T15:32:58;3.28;;;2.45;;